Search for airport 
image banner adimage banner ad
image banner ad

SSKX - Fazenda São Luíz do Matão Airport

Located in Carneirinho, Brazil

ICAO - SSKX, IATA -

Data provided by Airmate  

General information

Coordinates: S11°25'19" W37°19'25"
Elevation is 9 feet MSL.
Magnetic variation is -23° East
View others Airports in Sergipe

Operational data

Open for public use
Current time UTC:
Current local time:
Weather at : SBAR - Santa Maria ( 56 km )
METAR: SBAR 262000Z 08013KT 9999 FEW015 BKN100 28/23 Q1008
TAF: TAF SBAR 261547Z 2618/2718 09018KT 9999 SCT017 TN26/2708Z TX30/2716Z BECMG 2701/2703 05008KT BECMG 2712/2714 09018KT RMK PHQ
View NOTAMs / SUP AIP / TFR affecting this airport [VIEW]
Communications frequencies: [VIEW]

Runways:

RWY identifierQFULength (ft)Width (ft)SurfaceLDA (ft)
13164059DIRT
31164059DIRT

Airport contact information

Address: Carneirinho Brazil

Satellite view of SSKX